sensor_id;sensor_type;location;lat;lon;timestamp;P1;durP1;ratioP1;P2;durP2;ratioP2
5277;SDS011;2662;51.194;6.614;2023-04-29T00:01:51;23.40;;;12.07;;
5277;SDS011;2662;51.194;6.614;2023-04-29T00:04:22;25.57;;;13.87;;
5277;SDS011;2662;51.194;6.614;2023-04-29T00:06:49;21.80;;;12.40;;
5277;SDS011;2662;51.194;6.614;2023-04-29T00:09:17;20.47;;;11.23;;
5277;SDS011;2662;51.194;6.614;2023-04-29T00:11:44;28.70;;;13.53;;
5277;SDS011;2662;51.194;6.614;2023-04-29T00:14:12;26.33;;;13.17;;
5277;SDS011;2662;51.194;6.614;2023-04-29T00:16:38;35.73;;;16.80;;
5277;SDS011;2662;51.194;6.614;2023-04-29T00:19:05;42.83;;;21.40;;
5277;SDS011;2662;51.194;6.614;2023-04-29T00:21:32;47.80;;;23.67;;
5277;SDS011;2662;51.194;6.614;2023-04-29T00:23:58;48.03;;;24.40;;
5277;SDS011;2662;51.194;6.614;2023-04-29T00:26:27;55.13;;;26.10;;
5277;SDS011;2662;51.194;6.614;2023-04-29T00:28:53;60.73;;;26.27;;
5277;SDS011;2662;51.194;6.614;2023-04-29T00:31:20;56.07;;;26.60;;
5277;SDS011;2662;51.194;6.614;2023-04-29T00:33:47;54.93;;;27.77;;
5277;SDS011;2662;51.194;6.614;2023-04-29T00:36:14;52.53;;;25.10;;
5277;SDS011;2662;51.194;6.614;2023-04-29T00:38:41;52.03;;;25.67;;
5277;SDS011;2662;51.194;6.614;2023-04-29T00:41:07;53.10;;;26.23;;
5277;SDS011;2662;51.194;6.614;2023-04-29T00:43:36;53.60;;;24.77;;
5277;SDS011;2662;51.194;6.614;2023-04-29T00:46:03;57.83;;;27.60;;
5277;SDS011;2662;51.194;6.614;2023-04-29T00:48:29;56.57;;;27.03;;
5277;SDS011;2662;51.194;6.614;2023-04-29T00:50:57;61.77;;;28.20;;
5277;SDS011;2662;51.194;6.614;2023-04-29T00:53:24;58.97;;;26.00;;
5277;SDS011;2662;51.194;6.614;2023-04-29T00:55:51;53.40;;;26.93;;
5277;SDS011;2662;51.194;6.614;2023-04-29T00:58:18;61.33;;;26.03;;
5277;SDS011;2662;51.194;6.614;2023-04-29T01:00:47;51.00;;;26.80;;
5277;SDS011;2662;51.194;6.614;2023-04-29T01:03:15;58.37;;;27.90;;
5277;SDS011;2662;51.194;6.614;2023-04-29T01:05:42;62.23;;;27.87;;
5277;SDS011;2662;51.194;6.614;2023-04-29T01:08:20;64.20;;;29.10;;
5277;SDS011;2662;51.194;6.614;2023-04-29T01:11:01;67.53;;;26.77;;
5277;SDS011;2662;51.194;6.614;2023-04-29T01:13:34;63.47;;;28.53;;
5277;SDS011;2662;51.194;6.614;2023-04-29T01:16:10;63.97;;;28.47;;
5277;SDS011;2662;51.194;6.614;2023-04-29T01:18:44;58.67;;;26.87;;
5277;SDS011;2662;51.194;6.614;2023-04-29T01:21:14;62.43;;;27.93;;
5277;SDS011;2662;51.194;6.614;2023-04-29T01:23:43;63.80;;;29.00;;
5277;SDS011;2662;51.194;6.614;2023-04-29T01:26:10;61.30;;;28.37;;
5277;SDS011;2662;51.194;6.614;2023-04-29T01:28:39;65.63;;;29.03;;
5277;SDS011;2662;51.194;6.614;2023-04-29T01:31:14;63.17;;;29.07;;
5277;SDS011;2662;51.194;6.614;2023-04-29T01:33:46;65.10;;;28.13;;
5277;SDS011;2662;51.194;6.614;2023-04-29T01:36:21;60.13;;;28.20;;
5277;SDS011;2662;51.194;6.614;2023-04-29T01:39:02;63.70;;;28.30;;
5277;SDS011;2662;51.194;6.614;2023-04-29T01:41:37;77.20;;;31.23;;
5277;SDS011;2662;51.194;6.614;2023-04-29T01:44:09;76.03;;;30.53;;
5277;SDS011;2662;51.194;6.614;2023-04-29T01:46:41;74.20;;;31.77;;
5277;SDS011;2662;51.194;6.614;2023-04-29T01:49:11;73.17;;;30.67;;
5277;SDS011;2662;51.194;6.614;2023-04-29T01:51:38;72.20;;;32.03;;
5277;SDS011;2662;51.194;6.614;2023-04-29T01:54:06;73.00;;;30.07;;
5277;SDS011;2662;51.194;6.614;2023-04-29T01:56:33;79.13;;;32.03;;
5277;SDS011;2662;51.194;6.614;2023-04-29T01:58:59;75.97;;;30.80;;
5277;SDS011;2662;51.194;6.614;2023-04-29T02:01:26;70.97;;;30.07;;
5277;SDS011;2662;51.194;6.614;2023-04-29T02:03:53;79.00;;;31.47;;
5277;SDS011;2662;51.194;6.614;2023-04-29T02:06:20;91.47;;;33.07;;
5277;SDS011;2662;51.194;6.614;2023-04-29T02:08:46;84.17;;;31.73;;
5277;SDS011;2662;51.194;6.614;2023-04-29T02:11:15;77.13;;;29.13;;
5277;SDS011;2662;51.194;6.614;2023-04-29T02:13:41;82.83;;;30.93;;
5277;SDS011;2662;51.194;6.614;2023-04-29T02:16:09;80.60;;;28.67;;
5277;SDS011;2662;51.194;6.614;2023-04-29T02:18:36;89.37;;;30.53;;
5277;SDS011;2662;51.194;6.614;2023-04-29T02:21:04;70.13;;;28.60;;
5277;SDS011;2662;51.194;6.614;2023-04-29T02:23:30;93.23;;;31.97;;
5277;SDS011;2662;51.194;6.614;2023-04-29T02:25:57;78.83;;;30.80;;
5277;SDS011;2662;51.194;6.614;2023-04-29T02:28:26;86.97;;;30.97;;
5277;SDS011;2662;51.194;6.614;2023-04-29T02:30:53;83.47;;;30.83;;
5277;SDS011;2662;51.194;6.614;2023-04-29T02:33:21;96.90;;;29.27;;
5277;SDS011;2662;51.194;6.614;2023-04-29T02:35:47;87.50;;;29.97;;
5277;SDS011;2662;51.194;6.614;2023-04-29T02:38:14;80.70;;;27.30;;
5277;SDS011;2662;51.194;6.614;2023-04-29T02:40:41;81.73;;;28.13;;
5277;SDS011;2662;51.194;6.614;2023-04-29T02:43:08;70.47;;;25.00;;
5277;SDS011;2662;51.194;6.614;2023-04-29T02:45:37;66.20;;;25.30;;
5277;SDS011;2662;51.194;6.614;2023-04-29T02:48:04;70.37;;;24.53;;
5277;SDS011;2662;51.194;6.614;2023-04-29T02:50:31;56.10;;;23.03;;
5277;SDS011;2662;51.194;6.614;2023-04-29T02:52:58;50.23;;;22.33;;
5277;SDS011;2662;51.194;6.614;2023-04-29T02:55:25;59.77;;;23.60;;
5277;SDS011;2662;51.194;6.614;2023-04-29T02:57:52;56.03;;;23.03;;
5277;SDS011;2662;51.194;6.614;2023-04-29T03:00:18;57.57;;;23.00;;
5277;SDS011;2662;51.194;6.614;2023-04-29T03:02:47;61.60;;;23.00;;
5277;SDS011;2662;51.194;6.614;2023-04-29T03:05:13;66.60;;;26.37;;
5277;SDS011;2662;51.194;6.614;2023-04-29T03:07:40;59.53;;;23.47;;
5277;SDS011;2662;51.194;6.614;2023-04-29T03:10:08;73.53;;;26.40;;
5277;SDS011;2662;51.194;6.614;2023-04-29T03:12:35;66.73;;;24.00;;
5277;SDS011;2662;51.194;6.614;2023-04-29T03:15:03;63.53;;;23.47;;
5277;SDS011;2662;51.194;6.614;2023-04-29T03:17:31;56.27;;;22.47;;
5277;SDS011;2662;51.194;6.614;2023-04-29T03:20:00;57.70;;;22.40;;
5277;SDS011;2662;51.194;6.614;2023-04-29T03:22:26;65.03;;;22.33;;
5277;SDS011;2662;51.194;6.614;2023-04-29T03:24:53;62.30;;;24.07;;
5277;SDS011;2662;51.194;6.614;2023-04-29T03:27:20;62.10;;;24.00;;
5277;SDS011;2662;51.194;6.614;2023-04-29T03:29:47;58.83;;;24.47;;
5277;SDS011;2662;51.194;6.614;2023-04-29T03:32:14;56.77;;;22.67;;
5277;SDS011;2662;51.194;6.614;2023-04-29T03:34:40;61.53;;;24.00;;
5277;SDS011;2662;51.194;6.614;2023-04-29T03:37:08;66.53;;;24.20;;
5277;SDS011;2662;51.194;6.614;2023-04-29T03:39:35;69.73;;;25.00;;
5277;SDS011;2662;51.194;6.614;2023-04-29T03:42:02;76.37;;;28.13;;
5277;SDS011;2662;51.194;6.614;2023-04-29T03:44:29;66.07;;;26.70;;
5277;SDS011;2662;51.194;6.614;2023-04-29T03:46:56;74.17;;;25.80;;
5277;SDS011;2662;51.194;6.614;2023-04-29T03:49:22;61.00;;;24.47;;
5277;SDS011;2662;51.194;6.614;2023-04-29T03:51:49;62.40;;;24.10;;
5277;SDS011;2662;51.194;6.614;2023-04-29T03:54:18;64.30;;;22.93;;
5277;SDS011;2662;51.194;6.614;2023-04-29T03:56:44;66.57;;;25.20;;
5277;SDS011;2662;51.194;6.614;2023-04-29T03:59:11;57.33;;;22.30;;
5277;SDS011;2662;51.194;6.614;2023-04-29T04:01:38;64.67;;;23.00;;
5277;SDS011;2662;51.194;6.614;2023-04-29T04:04:05;56.80;;;22.63;;
5277;SDS011;2662;51.194;6.614;2023-04-29T04:06:31;65.53;;;23.80;;
5277;SDS011;2662;51.194;6.614;2023-04-29T04:08:58;55.80;;;22.23;;
5277;SDS011;2662;51.194;6.614;2023-04-29T04:11:26;60.57;;;23.60;;
5277;SDS011;2662;51.194;6.614;2023-04-29T04:13:53;63.20;;;23.80;;
5277;SDS011;2662;51.194;6.614;2023-04-29T04:16:20;55.63;;;20.80;;
5277;SDS011;2662;51.194;6.614;2023-04-29T04:18:46;56.47;;;22.13;;
5277;SDS011;2662;51.194;6.614;2023-04-29T04:21:13;53.43;;;21.50;;
5277;SDS011;2662;51.194;6.614;2023-04-29T04:23:40;56.00;;;21.73;;
5277;SDS011;2662;51.194;6.614;2023-04-29T04:26:08;48.77;;;20.40;;
5277;SDS011;2662;51.194;6.614;2023-04-29T04:28:36;49.30;;;19.57;;
5277;SDS011;2662;51.194;6.614;2023-04-29T04:31:02;45.83;;;18.60;;
5277;SDS011;2662;51.194;6.614;2023-04-29T04:33:30;44.50;;;19.20;;
5277;SDS011;2662;51.194;6.614;2023-04-29T04:35:58;43.97;;;18.33;;
5277;SDS011;2662;51.194;6.614;2023-04-29T04:38:24;49.63;;;20.43;;
5277;SDS011;2662;51.194;6.614;2023-04-29T04:40:52;48.60;;;19.10;;
5277;SDS011;2662;51.194;6.614;2023-04-29T04:43:18;46.30;;;19.00;;
5277;SDS011;2662;51.194;6.614;2023-04-29T04:45:46;42.57;;;18.17;;
5277;SDS011;2662;51.194;6.614;2023-04-29T04:48:13;41.97;;;17.10;;
5277;SDS011;2662;51.194;6.614;2023-04-29T04:50:40;44.20;;;17.77;;
5277;SDS011;2662;51.194;6.614;2023-04-29T04:53:07;45.83;;;17.30;;
5277;SDS011;2662;51.194;6.614;2023-04-29T04:55:34;42.87;;;17.63;;
5277;SDS011;2662;51.194;6.614;2023-04-29T04:58:01;44.10;;;19.60;;
5277;SDS011;2662;51.194;6.614;2023-04-29T05:00:27;40.30;;;17.00;;
5277;SDS011;2662;51.194;6.614;2023-04-29T05:02:55;40.70;;;17.50;;
5277;SDS011;2662;51.194;6.614;2023-04-29T05:05:22;41.87;;;17.40;;
5277;SDS011;2662;51.194;6.614;2023-04-29T05:07:49;42.10;;;17.40;;
5277;SDS011;2662;51.194;6.614;2023-04-29T05:10:16;40.63;;;17.67;;
5277;SDS011;2662;51.194;6.614;2023-04-29T05:12:43;40.07;;;16.93;;
5277;SDS011;2662;51.194;6.614;2023-04-29T05:15:09;36.70;;;16.80;;
5277;SDS011;2662;51.194;6.614;2023-04-29T05:17:36;36.20;;;15.80;;
5277;SDS011;2662;51.194;6.614;2023-04-29T05:20:05;35.23;;;16.13;;
5277;SDS011;2662;51.194;6.614;2023-04-29T05:22:33;41.57;;;16.27;;
5277;SDS011;2662;51.194;6.614;2023-04-29T05:25:00;37.80;;;16.43;;
5277;SDS011;2662;51.194;6.614;2023-04-29T05:27:27;37.50;;;18.10;;
5277;SDS011;2662;51.194;6.614;2023-04-29T05:29:54;37.40;;;16.67;;
5277;SDS011;2662;51.194;6.614;2023-04-29T05:32:20;35.37;;;17.20;;
5277;SDS011;2662;51.194;6.614;2023-04-29T05:34:47;39.17;;;16.87;;
5277;SDS011;2662;51.194;6.614;2023-04-29T05:37:15;39.63;;;16.60;;
5277;SDS011;2662;51.194;6.614;2023-04-29T05:39:42;36.47;;;16.67;;
5277;SDS011;2662;51.194;6.614;2023-04-29T05:42:09;36.50;;;15.93;;
5277;SDS011;2662;51.194;6.614;2023-04-29T05:44:35;34.73;;;16.70;;
5277;SDS011;2662;51.194;6.614;2023-04-29T05:47:03;35.30;;;16.40;;
5277;SDS011;2662;51.194;6.614;2023-04-29T05:49:30;37.00;;;17.00;;
5277;SDS011;2662;51.194;6.614;2023-04-29T05:51:57;35.93;;;17.40;;
5277;SDS011;2662;51.194;6.614;2023-04-29T05:54:29;32.20;;;16.87;;
5277;SDS011;2662;51.194;6.614;2023-04-29T05:56:56;34.43;;;16.10;;
5277;SDS011;2662;51.194;6.614;2023-04-29T05:59:23;35.23;;;16.50;;
5277;SDS011;2662;51.194;6.614;2023-04-29T06:01:50;37.70;;;17.63;;
5277;SDS011;2662;51.194;6.614;2023-04-29T06:04:16;30.13;;;15.23;;
5277;SDS011;2662;51.194;6.614;2023-04-29T06:06:43;34.53;;;17.10;;
5277;SDS011;2662;51.194;6.614;2023-04-29T06:09:10;39.30;;;18.27;;
5277;SDS011;2662;51.194;6.614;2023-04-29T06:11:40;35.73;;;16.73;;
5277;SDS011;2662;51.194;6.614;2023-04-29T06:14:08;33.23;;;16.30;;
5277;SDS011;2662;51.194;6.614;2023-04-29T06:16:35;33.83;;;15.53;;
5277;SDS011;2662;51.194;6.614;2023-04-29T06:19:01;34.30;;;15.70;;
5277;SDS011;2662;51.194;6.614;2023-04-29T06:21:28;32.73;;;15.40;;
5277;SDS011;2662;51.194;6.614;2023-04-29T06:23:55;39.50;;;17.50;;
5277;SDS011;2662;51.194;6.614;2023-04-29T06:26:22;31.87;;;15.20;;
5277;SDS011;2662;51.194;6.614;2023-04-29T06:28:50;30.97;;;15.13;;
5277;SDS011;2662;51.194;6.614;2023-04-29T06:31:18;32.90;;;14.23;;
5277;SDS011;2662;51.194;6.614;2023-04-29T06:33:45;30.90;;;15.10;;
5277;SDS011;2662;51.194;6.614;2023-04-29T06:36:11;30.93;;;15.63;;
5277;SDS011;2662;51.194;6.614;2023-04-29T06:38:38;30.30;;;14.07;;
5277;SDS011;2662;51.194;6.614;2023-04-29T06:41:05;31.80;;;14.63;;
5277;SDS011;2662;51.194;6.614;2023-04-29T06:43:31;26.93;;;13.13;;
5277;SDS011;2662;51.194;6.614;2023-04-29T06:45:59;27.80;;;13.60;;
5277;SDS011;2662;51.194;6.614;2023-04-29T06:48:26;27.93;;;14.00;;
5277;SDS011;2662;51.194;6.614;2023-04-29T06:50:54;25.97;;;13.50;;
5277;SDS011;2662;51.194;6.614;2023-04-29T06:53:22;28.07;;;13.57;;
5277;SDS011;2662;51.194;6.614;2023-04-29T06:55:49;27.10;;;13.57;;
5277;SDS011;2662;51.194;6.614;2023-04-29T06:58:16;22.43;;;13.00;;
5277;SDS011;2662;51.194;6.614;2023-04-29T07:00:44;29.53;;;13.33;;
5277;SDS011;2662;51.194;6.614;2023-04-29T07:03:13;21.80;;;12.33;;
5277;SDS011;2662;51.194;6.614;2023-04-29T07:05:40;30.03;;;12.97;;
5277;SDS011;2662;51.194;6.614;2023-04-29T07:08:09;26.63;;;13.63;;
5277;SDS011;2662;51.194;6.614;2023-04-29T07:10:37;28.60;;;12.83;;
5277;SDS011;2662;51.194;6.614;2023-04-29T07:13:04;30.23;;;13.50;;
5277;SDS011;2662;51.194;6.614;2023-04-29T07:15:32;24.50;;;12.90;;
5277;SDS011;2662;51.194;6.614;2023-04-29T07:17:59;21.47;;;10.80;;
5277;SDS011;2662;51.194;6.614;2023-04-29T07:20:29;28.90;;;12.60;;
5277;SDS011;2662;51.194;6.614;2023-04-29T07:22:56;21.50;;;11.70;;
5277;SDS011;2662;51.194;6.614;2023-04-29T07:25:22;23.10;;;11.47;;
5277;SDS011;2662;51.194;6.614;2023-04-29T07:27:49;24.10;;;12.53;;
5277;SDS011;2662;51.194;6.614;2023-04-29T07:30:16;21.83;;;10.80;;
5277;SDS011;2662;51.194;6.614;2023-04-29T07:32:43;24.67;;;11.57;;
5277;SDS011;2662;51.194;6.614;2023-04-29T07:35:09;26.70;;;12.30;;
5277;SDS011;2662;51.194;6.614;2023-04-29T07:37:37;18.20;;;10.63;;
5277;SDS011;2662;51.194;6.614;2023-04-29T07:40:06;22.83;;;10.73;;
5277;SDS011;2662;51.194;6.614;2023-04-29T07:42:33;18.83;;;10.70;;
5277;SDS011;2662;51.194;6.614;2023-04-29T07:45:00;19.43;;;10.00;;
5277;SDS011;2662;51.194;6.614;2023-04-29T07:47:27;19.70;;;10.97;;
5277;SDS011;2662;51.194;6.614;2023-04-29T07:49:53;18.70;;;10.27;;
5277;SDS011;2662;51.194;6.614;2023-04-29T07:52:20;19.70;;;10.00;;
5277;SDS011;2662;51.194;6.614;2023-04-29T07:54:48;16.87;;;9.60;;
5277;SDS011;2662;51.194;6.614;2023-04-29T07:57:15;19.20;;;10.30;;
5277;SDS011;2662;51.194;6.614;2023-04-29T07:59:42;16.70;;;9.97;;
5277;SDS011;2662;51.194;6.614;2023-04-29T08:02:08;17.90;;;9.40;;
5277;SDS011;2662;51.194;6.614;2023-04-29T08:04:37;15.17;;;9.97;;
5277;SDS011;2662;51.194;6.614;2023-04-29T08:07:05;22.60;;;10.07;;
5277;SDS011;2662;51.194;6.614;2023-04-29T08:09:32;15.37;;;9.90;;
5277;SDS011;2662;51.194;6.614;2023-04-29T08:12:00;16.80;;;9.57;;
5277;SDS011;2662;51.194;6.614;2023-04-29T08:14:27;15.37;;;8.80;;
5277;SDS011;2662;51.194;6.614;2023-04-29T08:16:53;18.03;;;10.00;;
5277;SDS011;2662;51.194;6.614;2023-04-29T08:19:20;15.47;;;9.20;;
5277;SDS011;2662;51.194;6.614;2023-04-29T08:21:47;16.87;;;9.67;;
5277;SDS011;2662;51.194;6.614;2023-04-29T08:24:14;17.47;;;9.50;;
5277;SDS011;2662;51.194;6.614;2023-04-29T08:26:40;17.70;;;9.50;;
5277;SDS011;2662;51.194;6.614;2023-04-29T08:29:09;15.00;;;9.40;;
5277;SDS011;2662;51.194;6.614;2023-04-29T08:31:35;16.87;;;9.73;;
5277;SDS011;2662;51.194;6.614;2023-04-29T08:34:02;17.60;;;10.30;;
5277;SDS011;2662;51.194;6.614;2023-04-29T08:36:29;16.00;;;10.63;;
5277;SDS011;2662;51.194;6.614;2023-04-29T08:38:56;19.63;;;10.50;;
5277;SDS011;2662;51.194;6.614;2023-04-29T08:41:22;18.63;;;10.40;;
5277;SDS011;2662;51.194;6.614;2023-04-29T08:43:49;16.07;;;9.60;;
5277;SDS011;2662;51.194;6.614;2023-04-29T08:46:18;17.03;;;9.50;;
5277;SDS011;2662;51.194;6.614;2023-04-29T08:48:45;18.63;;;11.00;;
5277;SDS011;2662;51.194;6.614;2023-04-29T08:51:13;19.00;;;10.73;;
5277;SDS011;2662;51.194;6.614;2023-04-29T08:53:40;18.00;;;10.50;;
5277;SDS011;2662;51.194;6.614;2023-04-29T08:56:08;17.33;;;10.40;;
5277;SDS011;2662;51.194;6.614;2023-04-29T08:58:38;20.33;;;10.53;;
5277;SDS011;2662;51.194;6.614;2023-04-29T09:01:07;21.83;;;11.83;;
5277;SDS011;2662;51.194;6.614;2023-04-29T09:03:39;19.87;;;11.33;;
5277;SDS011;2662;51.194;6.614;2023-04-29T09:06:11;19.93;;;10.43;;
5277;SDS011;2662;51.194;6.614;2023-04-29T09:08:39;19.20;;;10.70;;
5277;SDS011;2662;51.194;6.614;2023-04-29T09:11:07;22.53;;;11.90;;
5277;SDS011;2662;51.194;6.614;2023-04-29T09:13:35;17.37;;;11.00;;
5277;SDS011;2662;51.194;6.614;2023-04-29T09:16:02;20.40;;;11.57;;
5277;SDS011;2662;51.194;6.614;2023-04-29T09:18:44;25.17;;;12.70;;
5277;SDS011;2662;51.194;6.614;2023-04-29T09:21:13;22.27;;;11.90;;
5277;SDS011;2662;51.194;6.614;2023-04-29T09:23:40;23.70;;;12.70;;
5277;SDS011;2662;51.194;6.614;2023-04-29T09:26:07;27.43;;;13.17;;
5277;SDS011;2662;51.194;6.614;2023-04-29T09:28:34;30.40;;;13.40;;
5277;SDS011;2662;51.194;6.614;2023-04-29T09:31:01;26.70;;;14.27;;
5277;SDS011;2662;51.194;6.614;2023-04-29T09:33:30;23.27;;;12.77;;
5277;SDS011;2662;51.194;6.614;2023-04-29T09:35:58;29.23;;;13.40;;
5277;SDS011;2662;51.194;6.614;2023-04-29T09:38:25;25.77;;;13.80;;
5277;SDS011;2662;51.194;6.614;2023-04-29T09:40:52;22.43;;;13.50;;
5277;SDS011;2662;51.194;6.614;2023-04-29T09:43:20;30.67;;;15.27;;
5277;SDS011;2662;51.194;6.614;2023-04-29T09:45:47;31.37;;;16.00;;
5277;SDS011;2662;51.194;6.614;2023-04-29T09:48:14;28.90;;;14.90;;
5277;SDS011;2662;51.194;6.614;2023-04-29T09:50:42;32.30;;;16.10;;
5277;SDS011;2662;51.194;6.614;2023-04-29T09:53:12;30.03;;;15.20;;
5277;SDS011;2662;51.194;6.614;2023-04-29T09:55:57;26.43;;;14.73;;
5277;SDS011;2662;51.194;6.614;2023-04-29T09:58:28;32.97;;;16.70;;
5277;SDS011;2662;51.194;6.614;2023-04-29T10:01:00;28.60;;;15.90;;
5277;SDS011;2662;51.194;6.614;2023-04-29T10:03:30;28.10;;;15.87;;
5277;SDS011;2662;51.194;6.614;2023-04-29T10:05:59;29.60;;;16.20;;
5277;SDS011;2662;51.194;6.614;2023-04-29T10:08:28;29.33;;;15.30;;
5277;SDS011;2662;51.194;6.614;2023-04-29T10:10:55;43.87;;;16.47;;
5277;SDS011;2662;51.194;6.614;2023-04-29T10:13:26;29.20;;;15.37;;
5277;SDS011;2662;51.194;6.614;2023-04-29T10:15:56;26.23;;;14.57;;
5277;SDS011;2662;51.194;6.614;2023-04-29T10:18:29;27.17;;;15.27;;
5277;SDS011;2662;51.194;6.614;2023-04-29T10:21:01;30.03;;;15.60;;
5277;SDS011;2662;51.194;6.614;2023-04-29T10:23:30;34.13;;;15.93;;
5277;SDS011;2662;51.194;6.614;2023-04-29T10:25:59;36.63;;;16.50;;
5277;SDS011;2662;51.194;6.614;2023-04-29T10:28:28;31.83;;;16.80;;
5277;SDS011;2662;51.194;6.614;2023-04-29T10:30:56;32.73;;;15.97;;
5277;SDS011;2662;51.194;6.614;2023-04-29T10:33:26;39.47;;;15.80;;
5277;SDS011;2662;51.194;6.614;2023-04-29T10:35:56;33.30;;;16.93;;
5277;SDS011;2662;51.194;6.614;2023-04-29T10:38:25;42.40;;;16.87;;
5277;SDS011;2662;51.194;6.614;2023-04-29T10:40:57;32.70;;;15.93;;
5277;SDS011;2662;51.194;6.614;2023-04-29T10:43:27;30.10;;;15.60;;
5277;SDS011;2662;51.194;6.614;2023-04-29T10:48:46;32.33;;;15.97;;
5277;SDS011;2662;51.194;6.614;2023-04-29T10:51:26;34.77;;;16.13;;
5277;SDS011;2662;51.194;6.614;2023-04-29T10:53:58;29.03;;;15.97;;
5277;SDS011;2662;51.194;6.614;2023-04-29T10:56:38;31.50;;;14.70;;
5277;SDS011;2662;51.194;6.614;2023-04-29T10:59:09;34.03;;;17.83;;
5277;SDS011;2662;51.194;6.614;2023-04-29T11:01:43;33.60;;;15.60;;
5277;SDS011;2662;51.194;6.614;2023-04-29T11:04:14;31.90;;;15.83;;
5277;SDS011;2662;51.194;6.614;2023-04-29T11:06:46;32.10;;;16.33;;
5277;SDS011;2662;51.194;6.614;2023-04-29T11:09:20;30.93;;;16.67;;
5277;SDS011;2662;51.194;6.614;2023-04-29T11:12:00;29.87;;;15.97;;
5277;SDS011;2662;51.194;6.614;2023-04-29T11:14:30;29.47;;;15.70;;
5277;SDS011;2662;51.194;6.614;2023-04-29T11:17:00;35.13;;;16.57;;
5277;SDS011;2662;51.194;6.614;2023-04-29T11:19:32;34.67;;;17.30;;
5277;SDS011;2662;51.194;6.614;2023-04-29T11:22:07;36.23;;;18.20;;
5277;SDS011;2662;51.194;6.614;2023-04-29T11:24:49;30.73;;;17.07;;
5277;SDS011;2662;51.194;6.614;2023-04-29T11:27:19;30.97;;;17.43;;
5277;SDS011;2662;51.194;6.614;2023-04-29T11:29:49;36.17;;;16.97;;
5277;SDS011;2662;51.194;6.614;2023-04-29T11:32:19;28.40;;;17.13;;
5277;SDS011;2662;51.194;6.614;2023-04-29T11:34:47;29.70;;;17.17;;
5277;SDS011;2662;51.194;6.614;2023-04-29T11:37:18;36.73;;;19.00;;
5277;SDS011;2662;51.194;6.614;2023-04-29T11:39:46;40.67;;;18.70;;
5277;SDS011;2662;51.194;6.614;2023-04-29T11:42:13;33.80;;;16.83;;
5277;SDS011;2662;51.194;6.614;2023-04-29T11:44:46;34.73;;;18.40;;
5277;SDS011;2662;51.194;6.614;2023-04-29T11:47:17;34.00;;;19.27;;
5277;SDS011;2662;51.194;6.614;2023-04-29T11:49:45;37.97;;;17.53;;
5277;SDS011;2662;51.194;6.614;2023-04-29T11:52:12;31.03;;;17.43;;
5277;SDS011;2662;51.194;6.614;2023-04-29T11:54:39;37.77;;;19.60;;
5277;SDS011;2662;51.194;6.614;2023-04-29T11:57:06;37.27;;;20.10;;
5277;SDS011;2662;51.194;6.614;2023-04-29T11:59:37;37.67;;;20.97;;
5277;SDS011;2662;51.194;6.614;2023-04-29T12:02:04;38.83;;;22.70;;
5277;SDS011;2662;51.194;6.614;2023-04-29T12:04:31;42.07;;;25.10;;
5277;SDS011;2662;51.194;6.614;2023-04-29T12:06:58;44.23;;;24.57;;
5277;SDS011;2662;51.194;6.614;2023-04-29T12:09:25;41.20;;;23.70;;
5277;SDS011;2662;51.194;6.614;2023-04-29T12:11:51;39.83;;;22.50;;
5277;SDS011;2662;51.194;6.614;2023-04-29T12:14:18;43.03;;;24.23;;
5277;SDS011;2662;51.194;6.614;2023-04-29T12:16:47;46.13;;;25.57;;
5277;SDS011;2662;51.194;6.614;2023-04-29T12:19:13;49.17;;;25.80;;
5277;SDS011;2662;51.194;6.614;2023-04-29T12:21:47;46.83;;;23.80;;
5277;SDS011;2662;51.194;6.614;2023-04-29T12:24:16;42.00;;;24.17;;
5277;SDS011;2662;51.194;6.614;2023-04-29T12:26:43;38.40;;;23.40;;
5277;SDS011;2662;51.194;6.614;2023-04-29T12:29:10;40.30;;;24.27;;
5277;SDS011;2662;51.194;6.614;2023-04-29T12:31:38;44.00;;;22.80;;
5277;SDS011;2662;51.194;6.614;2023-04-29T12:34:07;45.87;;;25.67;;
5277;SDS011;2662;51.194;6.614;2023-04-29T12:36:33;40.53;;;24.73;;
5277;SDS011;2662;51.194;6.614;2023-04-29T12:39:01;37.53;;;23.03;;
5277;SDS011;2662;51.194;6.614;2023-04-29T12:41:36;37.47;;;21.40;;
5277;SDS011;2662;51.194;6.614;2023-04-29T12:44:04;39.07;;;24.13;;
5277;SDS011;2662;51.194;6.614;2023-04-29T12:46:35;35.13;;;21.83;;
5277;SDS011;2662;51.194;6.614;2023-04-29T12:49:02;31.50;;;21.60;;
5277;SDS011;2662;51.194;6.614;2023-04-29T12:51:31;33.57;;;20.57;;
5277;SDS011;2662;51.194;6.614;2023-04-29T12:53:58;35.03;;;19.90;;
5277;SDS011;2662;51.194;6.614;2023-04-29T12:56:26;27.37;;;19.27;;
5277;SDS011;2662;51.194;6.614;2023-04-29T12:58:52;35.87;;;22.10;;
5277;SDS011;2662;51.194;6.614;2023-04-29T13:01:19;39.47;;;21.40;;
5277;SDS011;2662;51.194;6.614;2023-04-29T13:03:46;28.50;;;19.17;;
5277;SDS011;2662;51.194;6.614;2023-04-29T13:06:13;30.00;;;19.40;;
5277;SDS011;2662;51.194;6.614;2023-04-29T13:08:41;29.50;;;18.30;;
5277;SDS011;2662;51.194;6.614;2023-04-29T13:11:08;27.33;;;18.40;;
5277;SDS011;2662;51.194;6.614;2023-04-29T13:13:35;28.80;;;18.33;;
5277;SDS011;2662;51.194;6.614;2023-04-29T13:16:01;31.37;;;18.60;;
5277;SDS011;2662;51.194;6.614;2023-04-29T13:18:29;30.37;;;19.57;;
5277;SDS011;2662;51.194;6.614;2023-04-29T13:20:56;32.50;;;21.60;;
5277;SDS011;2662;51.194;6.614;2023-04-29T13:23:23;29.87;;;20.57;;
5277;SDS011;2662;51.194;6.614;2023-04-29T13:25:51;30.30;;;21.70;;
5277;SDS011;2662;51.194;6.614;2023-04-29T13:28:18;38.90;;;23.63;;
5277;SDS011;2662;51.194;6.614;2023-04-29T13:30:46;32.73;;;23.10;;
5277;SDS011;2662;51.194;6.614;2023-04-29T13:33:12;32.33;;;23.70;;
5277;SDS011;2662;51.194;6.614;2023-04-29T13:35:39;38.20;;;23.30;;
5277;SDS011;2662;51.194;6.614;2023-04-29T13:38:06;36.93;;;23.70;;
5277;SDS011;2662;51.194;6.614;2023-04-29T13:40:33;34.87;;;22.57;;
5277;SDS011;2662;51.194;6.614;2023-04-29T13:43:01;34.50;;;23.07;;
5277;SDS011;2662;51.194;6.614;2023-04-29T13:45:28;28.80;;;21.60;;
5277;SDS011;2662;51.194;6.614;2023-04-29T13:47:55;35.87;;;22.20;;
5277;SDS011;2662;51.194;6.614;2023-04-29T13:50:22;34.20;;;21.90;;
5277;SDS011;2662;51.194;6.614;2023-04-29T13:52:48;38.40;;;21.87;;
5277;SDS011;2662;51.194;6.614;2023-04-29T13:55:15;29.60;;;20.83;;
5277;SDS011;2662;51.194;6.614;2023-04-29T13:57:42;29.67;;;20.20;;
5277;SDS011;2662;51.194;6.614;2023-04-29T14:00:11;30.53;;;19.27;;
5277;SDS011;2662;51.194;6.614;2023-04-29T14:02:38;33.00;;;21.10;;
5277;SDS011;2662;51.194;6.614;2023-04-29T14:05:05;30.77;;;19.30;;
5277;SDS011;2662;51.194;6.614;2023-04-29T14:07:33;32.60;;;20.37;;
5277;SDS011;2662;51.194;6.614;2023-04-29T14:10:00;27.90;;;19.60;;
5277;SDS011;2662;51.194;6.614;2023-04-29T14:12:27;32.30;;;20.97;;
5277;SDS011;2662;51.194;6.614;2023-04-29T14:14:54;33.60;;;19.90;;
5277;SDS011;2662;51.194;6.614;2023-04-29T14:17:22;31.23;;;20.20;;
5277;SDS011;2662;51.194;6.614;2023-04-29T14:19:49;27.53;;;20.20;;
5277;SDS011;2662;51.194;6.614;2023-04-29T14:22:16;27.47;;;18.70;;
5277;SDS011;2662;51.194;6.614;2023-04-29T14:24:43;23.83;;;16.83;;
5277;SDS011;2662;51.194;6.614;2023-04-29T14:27:10;24.67;;;16.57;;
5277;SDS011;2662;51.194;6.614;2023-04-29T14:29:37;20.10;;;14.10;;
5277;SDS011;2662;51.194;6.614;2023-04-29T14:32:03;18.00;;;11.50;;
5277;SDS011;2662;51.194;6.614;2023-04-29T14:34:32;19.67;;;11.17;;
5277;SDS011;2662;51.194;6.614;2023-04-29T14:36:59;16.67;;;10.17;;
5277;SDS011;2662;51.194;6.614;2023-04-29T14:39:26;17.53;;;10.20;;
5277;SDS011;2662;51.194;6.614;2023-04-29T14:41:53;15.17;;;9.93;;
5277;SDS011;2662;51.194;6.614;2023-04-29T14:44:19;15.03;;;9.63;;
5277;SDS011;2662;51.194;6.614;2023-04-29T14:46:46;15.30;;;10.53;;
5277;SDS011;2662;51.194;6.614;2023-04-29T14:49:13;18.00;;;9.40;;
5277;SDS011;2662;51.194;6.614;2023-04-29T14:51:41;16.03;;;8.57;;
5277;SDS011;2662;51.194;6.614;2023-04-29T14:54:08;16.53;;;9.40;;
5277;SDS011;2662;51.194;6.614;2023-04-29T14:56:35;13.93;;;8.97;;